sensor_id;sensor_type;location;lat;lon;timestamp;temperature;humidity
51884;DHT22;37915;53.254;6.598;2022-08-21T00:01:16;16.40;99.90
51884;DHT22;37915;53.254;6.598;2022-08-21T00:03:43;16.40;99.90
51884;DHT22;37915;53.254;6.598;2022-08-21T00:06:10;16.40;99.90
51884;DHT22;37915;53.254;6.598;2022-08-21T00:08:35;16.30;99.90
51884;DHT22;37915;53.254;6.598;2022-08-21T00:11:01;16.30;99.90
51884;DHT22;37915;53.254;6.598;2022-08-21T00:13:27;16.30;99.90
51884;DHT22;37915;53.254;6.598;2022-08-21T00:15:53;16.30;99.90
51884;DHT22;37915;53.254;6.598;2022-08-21T00:18:20;16.30;99.90
51884;DHT22;37915;53.254;6.598;2022-08-21T00:20:46;16.20;99.90
51884;DHT22;37915;53.254;6.598;2022-08-21T00:23:12;16.20;99.90
51884;DHT22;37915;53.254;6.598;2022-08-21T00:25:38;16.20;99.90
51884;DHT22;37915;53.254;6.598;2022-08-21T00:28:04;16.10;99.90
51884;DHT22;37915;53.254;6.598;2022-08-21T00:30:32;16.10;99.90
51884;DHT22;37915;53.254;6.598;2022-08-21T00:32:59;16.00;99.90
51884;DHT22;37915;53.254;6.598;2022-08-21T00:35:31;16.00;99.90
51884;DHT22;37915;53.254;6.598;2022-08-21T00:37:57;15.90;99.90
51884;DHT22;37915;53.254;6.598;2022-08-21T00:40:34;15.90;99.90
51884;DHT22;37915;53.254;6.598;2022-08-21T00:43:03;15.80;99.90
51884;DHT22;37915;53.254;6.598;2022-08-21T00:45:29;15.80;99.90
51884;DHT22;37915;53.254;6.598;2022-08-21T00:47:56;15.80;99.90
51884;DHT22;37915;53.254;6.598;2022-08-21T00:50:22;15.80;99.90
51884;DHT22;37915;53.254;6.598;2022-08-21T00:52:51;15.80;99.90
51884;DHT22;37915;53.254;6.598;2022-08-21T00:55:17;15.80;99.90
51884;DHT22;37915;53.254;6.598;2022-08-21T00:57:50;15.70;99.90
51884;DHT22;37915;53.254;6.598;2022-08-21T01:00:20;15.70;99.90
51884;DHT22;37915;53.254;6.598;2022-08-21T01:02:46;15.60;99.90
51884;DHT22;37915;53.254;6.598;2022-08-21T01:05:13;15.60;99.90
51884;DHT22;37915;53.254;6.598;2022-08-21T01:07:41;15.60;99.90
51884;DHT22;37915;53.254;6.598;2022-08-21T01:10:07;15.60;99.90
51884;DHT22;37915;53.254;6.598;2022-08-21T01:12:34;15.60;99.90
51884;DHT22;37915;53.254;6.598;2022-08-21T01:15:03;15.60;99.90
51884;DHT22;37915;53.254;6.598;2022-08-21T01:17:29;15.60;99.90
51884;DHT22;37915;53.254;6.598;2022-08-21T01:20:00;15.60;99.90
51884;DHT22;37915;53.254;6.598;2022-08-21T01:22:27;15.50;99.90
51884;DHT22;37915;53.254;6.598;2022-08-21T01:24:53;15.50;99.90
51884;DHT22;37915;53.254;6.598;2022-08-21T01:27:19;15.50;99.90
51884;DHT22;37915;53.254;6.598;2022-08-21T01:30:04;15.50;99.90
51884;DHT22;37915;53.254;6.598;2022-08-21T01:32:33;15.50;99.90
51884;DHT22;37915;53.254;6.598;2022-08-21T01:34:59;15.50;99.90
51884;DHT22;37915;53.254;6.598;2022-08-21T01:37:25;15.50;99.90
51884;DHT22;37915;53.254;6.598;2022-08-21T01:39:51;15.50;99.90
51884;DHT22;37915;53.254;6.598;2022-08-21T01:42:17;15.50;99.90
51884;DHT22;37915;53.254;6.598;2022-08-21T01:44:43;15.40;99.90
51884;DHT22;37915;53.254;6.598;2022-08-21T01:47:11;15.50;99.90
51884;DHT22;37915;53.254;6.598;2022-08-21T01:49:38;15.50;99.90
51884;DHT22;37915;53.254;6.598;2022-08-21T01:52:05;15.50;99.90
51884;DHT22;37915;53.254;6.598;2022-08-21T01:54:31;15.40;99.90
51884;DHT22;37915;53.254;6.598;2022-08-21T01:56:58;15.40;99.90
51884;DHT22;37915;53.254;6.598;2022-08-21T01:59:24;15.40;99.90
51884;DHT22;37915;53.254;6.598;2022-08-21T02:01:51;15.50;99.90
51884;DHT22;37915;53.254;6.598;2022-08-21T02:04:19;15.50;99.90
51884;DHT22;37915;53.254;6.598;2022-08-21T02:06:45;15.40;99.90
51884;DHT22;37915;53.254;6.598;2022-08-21T02:09:11;15.50;99.90
51884;DHT22;37915;53.254;6.598;2022-08-21T02:11:37;15.50;99.90
51884;DHT22;37915;53.254;6.598;2022-08-21T02:14:10;15.50;99.90
51884;DHT22;37915;53.254;6.598;2022-08-21T02:16:37;15.40;99.90
51884;DHT22;37915;53.254;6.598;2022-08-21T02:19:04;15.40;99.90
51884;DHT22;37915;53.254;6.598;2022-08-21T02:21:30;15.50;99.90
51884;DHT22;37915;53.254;6.598;2022-08-21T02:23:56;15.50;99.90
51884;DHT22;37915;53.254;6.598;2022-08-21T02:26:22;15.50;99.90
51884;DHT22;37915;53.254;6.598;2022-08-21T02:28:48;15.50;99.90
51884;DHT22;37915;53.254;6.598;2022-08-21T02:31:14;15.50;99.90
51884;DHT22;37915;53.254;6.598;2022-08-21T02:33:40;15.50;99.90
51884;DHT22;37915;53.254;6.598;2022-08-21T02:36:07;15.50;99.90
51884;DHT22;37915;53.254;6.598;2022-08-21T02:38:35;15.40;99.90
51884;DHT22;37915;53.254;6.598;2022-08-21T02:41:05;15.40;99.90
51884;DHT22;37915;53.254;6.598;2022-08-21T02:43:34;15.40;99.90
51884;DHT22;37915;53.254;6.598;2022-08-21T02:46:00;15.40;99.90
51884;DHT22;37915;53.254;6.598;2022-08-21T02:48:28;15.40;99.90
51884;DHT22;37915;53.254;6.598;2022-08-21T02:50:56;15.40;99.90
51884;DHT22;37915;53.254;6.598;2022-08-21T02:53:23;15.40;99.90
51884;DHT22;37915;53.254;6.598;2022-08-21T02:55:50;15.40;99.90
51884;DHT22;37915;53.254;6.598;2022-08-21T02:58:21;15.40;99.90
51884;DHT22;37915;53.254;6.598;2022-08-21T03:00:47;15.40;99.90
51884;DHT22;37915;53.254;6.598;2022-08-21T03:03:13;15.40;99.90
51884;DHT22;37915;53.254;6.598;2022-08-21T03:05:40;15.40;99.90
51884;DHT22;37915;53.254;6.598;2022-08-21T03:08:08;15.40;99.90
51884;DHT22;37915;53.254;6.598;2022-08-21T03:10:36;15.40;99.90
51884;DHT22;37915;53.254;6.598;2022-08-21T03:13:02;15.50;99.90
51884;DHT22;37915;53.254;6.598;2022-08-21T03:15:29;15.50;99.90
51884;DHT22;37915;53.254;6.598;2022-08-21T03:17:55;15.50;99.90
51884;DHT22;37915;53.254;6.598;2022-08-21T03:20:23;15.50;99.90
51884;DHT22;37915;53.254;6.598;2022-08-21T03:22:50;15.60;99.90
51884;DHT22;37915;53.254;6.598;2022-08-21T03:25:16;15.50;99.90
51884;DHT22;37915;53.254;6.598;2022-08-21T03:27:43;15.60;99.90
51884;DHT22;37915;53.254;6.598;2022-08-21T03:30:10;15.60;99.90
51884;DHT22;37915;53.254;6.598;2022-08-21T03:32:36;15.60;99.90
51884;DHT22;37915;53.254;6.598;2022-08-21T03:35:04;15.60;99.90
51884;DHT22;37915;53.254;6.598;2022-08-21T03:37:30;15.60;99.90
51884;DHT22;37915;53.254;6.598;2022-08-21T03:39:55;15.60;99.90
51884;DHT22;37915;53.254;6.598;2022-08-21T03:42:21;15.70;99.90
51884;DHT22;37915;53.254;6.598;2022-08-21T03:44:48;15.70;99.90
51884;DHT22;37915;53.254;6.598;2022-08-21T03:47:14;15.60;99.90
51884;DHT22;37915;53.254;6.598;2022-08-21T03:49:39;15.60;99.90
51884;DHT22;37915;53.254;6.598;2022-08-21T03:52:06;15.70;99.90
51884;DHT22;37915;53.254;6.598;2022-08-21T03:54:32;15.70;99.90
51884;DHT22;37915;53.254;6.598;2022-08-21T03:56:58;15.70;99.90
51884;DHT22;37915;53.254;6.598;2022-08-21T03:59:24;15.70;99.90
51884;DHT22;37915;53.254;6.598;2022-08-21T04:01:57;15.70;99.90
51884;DHT22;37915;53.254;6.598;2022-08-21T04:04:24;15.70;99.90
51884;DHT22;37915;53.254;6.598;2022-08-21T04:06:50;15.70;99.90
51884;DHT22;37915;53.254;6.598;2022-08-21T04:09:16;15.70;99.90
51884;DHT22;37915;53.254;6.598;2022-08-21T04:11:42;15.80;99.90
51884;DHT22;37915;53.254;6.598;2022-08-21T04:14:08;15.80;99.90
51884;DHT22;37915;53.254;6.598;2022-08-21T04:16:34;15.80;99.90
51884;DHT22;37915;53.254;6.598;2022-08-21T04:19:00;15.80;99.90
51884;DHT22;37915;53.254;6.598;2022-08-21T04:21:27;15.80;99.90
51884;DHT22;37915;53.254;6.598;2022-08-21T04:23:56;15.80;99.90
51884;DHT22;37915;53.254;6.598;2022-08-21T04:26:22;15.80;99.90
51884;DHT22;37915;53.254;6.598;2022-08-21T04:28:48;15.90;99.90
51884;DHT22;37915;53.254;6.598;2022-08-21T04:31:14;15.80;99.90
51884;DHT22;37915;53.254;6.598;2022-08-21T04:33:39;15.90;99.90
51884;DHT22;37915;53.254;6.598;2022-08-21T04:36:05;15.90;99.90
51884;DHT22;37915;53.254;6.598;2022-08-21T04:38:32;15.90;99.90
51884;DHT22;37915;53.254;6.598;2022-08-21T04:40:58;15.90;99.90
51884;DHT22;37915;53.254;6.598;2022-08-21T04:43:24;15.90;99.90
51884;DHT22;37915;53.254;6.598;2022-08-21T04:45:51;15.90;99.90
51884;DHT22;37915;53.254;6.598;2022-08-21T04:48:20;15.90;99.90
51884;DHT22;37915;53.254;6.598;2022-08-21T04:51:12;15.90;99.90
51884;DHT22;37915;53.254;6.598;2022-08-21T04:54:20;15.90;99.90
51884;DHT22;37915;53.254;6.598;2022-08-21T04:56:45;16.00;99.90
51884;DHT22;37915;53.254;6.598;2022-08-21T04:59:28;16.00;99.90
51884;DHT22;37915;53.254;6.598;2022-08-21T05:01:55;16.00;99.90
51884;DHT22;37915;53.254;6.598;2022-08-21T05:04:24;16.00;99.90
51884;DHT22;37915;53.254;6.598;2022-08-21T05:06:53;16.00;99.90
51884;DHT22;37915;53.254;6.598;2022-08-21T05:09:20;16.00;99.90
51884;DHT22;37915;53.254;6.598;2022-08-21T05:11:47;16.10;99.90
51884;DHT22;37915;53.254;6.598;2022-08-21T05:14:13;16.10;99.90
51884;DHT22;37915;53.254;6.598;2022-08-21T05:16:39;16.10;99.90
51884;DHT22;37915;53.254;6.598;2022-08-21T05:19:06;16.10;99.90
51884;DHT22;37915;53.254;6.598;2022-08-21T05:21:33;16.10;99.90
51884;DHT22;37915;53.254;6.598;2022-08-21T05:23:59;16.10;99.90
51884;DHT22;37915;53.254;6.598;2022-08-21T05:26:25;16.20;99.90
51884;DHT22;37915;53.254;6.598;2022-08-21T05:28:50;16.20;99.90
51884;DHT22;37915;53.254;6.598;2022-08-21T05:31:17;16.20;99.90
51884;DHT22;37915;53.254;6.598;2022-08-21T05:33:43;16.30;99.90
51884;DHT22;37915;53.254;6.598;2022-08-21T05:36:08;16.30;99.90
51884;DHT22;37915;53.254;6.598;2022-08-21T05:38:34;16.30;99.90
51884;DHT22;37915;53.254;6.598;2022-08-21T05:41:00;16.40;99.90
51884;DHT22;37915;53.254;6.598;2022-08-21T05:43:26;16.40;99.90
51884;DHT22;37915;53.254;6.598;2022-08-21T05:45:51;16.40;99.90
51884;DHT22;37915;53.254;6.598;2022-08-21T05:48:19;16.40;99.90
51884;DHT22;37915;53.254;6.598;2022-08-21T05:50:47;16.50;99.90
51884;DHT22;37915;53.254;6.598;2022-08-21T05:53:15;16.60;99.90
51884;DHT22;37915;53.254;6.598;2022-08-21T05:55:42;16.60;99.90
51884;DHT22;37915;53.254;6.598;2022-08-21T05:58:08;16.70;99.90
51884;DHT22;37915;53.254;6.598;2022-08-21T06:00:33;16.70;99.90
51884;DHT22;37915;53.254;6.598;2022-08-21T06:02:59;16.80;99.90
51884;DHT22;37915;53.254;6.598;2022-08-21T06:05:25;16.80;99.90
51884;DHT22;37915;53.254;6.598;2022-08-21T06:07:52;16.90;99.90
51884;DHT22;37915;53.254;6.598;2022-08-21T06:10:18;16.90;99.90
51884;DHT22;37915;53.254;6.598;2022-08-21T06:12:44;17.00;99.90
51884;DHT22;37915;53.254;6.598;2022-08-21T06:15:10;17.00;99.90
51884;DHT22;37915;53.254;6.598;2022-08-21T06:17:36;17.10;99.90
51884;DHT22;37915;53.254;6.598;2022-08-21T06:20:03;17.10;99.90
51884;DHT22;37915;53.254;6.598;2022-08-21T06:22:30;17.20;99.90
51884;DHT22;37915;53.254;6.598;2022-08-21T06:24:55;17.20;99.90
51884;DHT22;37915;53.254;6.598;2022-08-21T06:27:21;17.30;99.90
51884;DHT22;37915;53.254;6.598;2022-08-21T06:29:47;17.40;99.90
51884;DHT22;37915;53.254;6.598;2022-08-21T06:32:13;17.50;99.90
51884;DHT22;37915;53.254;6.598;2022-08-21T06:34:40;17.50;99.90
51884;DHT22;37915;53.254;6.598;2022-08-21T06:37:07;17.50;99.90
51884;DHT22;37915;53.254;6.598;2022-08-21T06:39:33;17.60;99.90
51884;DHT22;37915;53.254;6.598;2022-08-21T06:41:59;17.70;99.90
51884;DHT22;37915;53.254;6.598;2022-08-21T06:44:25;17.80;99.90
51884;DHT22;37915;53.254;6.598;2022-08-21T06:46:51;17.80;99.90
51884;DHT22;37915;53.254;6.598;2022-08-21T06:49:17;17.90;99.90
51884;DHT22;37915;53.254;6.598;2022-08-21T06:51:42;17.90;99.90
51884;DHT22;37915;53.254;6.598;2022-08-21T06:54:08;17.90;99.90
51884;DHT22;37915;53.254;6.598;2022-08-21T06:56:34;18.00;99.90
51884;DHT22;37915;53.254;6.598;2022-08-21T06:59:02;18.00;99.90
51884;DHT22;37915;53.254;6.598;2022-08-21T07:01:28;18.10;99.90
51884;DHT22;37915;53.254;6.598;2022-08-21T07:03:54;18.10;99.90
51884;DHT22;37915;53.254;6.598;2022-08-21T07:06:19;18.10;99.90
51884;DHT22;37915;53.254;6.598;2022-08-21T07:08:45;18.20;99.90
51884;DHT22;37915;53.254;6.598;2022-08-21T07:11:17;18.20;99.90
51884;DHT22;37915;53.254;6.598;2022-08-21T07:13:42;18.30;99.90
51884;DHT22;37915;53.254;6.598;2022-08-21T07:16:08;18.30;99.90
51884;DHT22;37915;53.254;6.598;2022-08-21T07:18:34;18.40;99.90
51884;DHT22;37915;53.254;6.598;2022-08-21T07:21:04;18.40;99.90
51884;DHT22;37915;53.254;6.598;2022-08-21T07:23:34;18.40;99.90
51884;DHT22;37915;53.254;6.598;2022-08-21T07:26:01;18.50;99.90
51884;DHT22;37915;53.254;6.598;2022-08-21T07:28:27;18.60;99.90
51884;DHT22;37915;53.254;6.598;2022-08-21T07:30:56;18.70;99.90
51884;DHT22;37915;53.254;6.598;2022-08-21T07:33:23;18.70;99.90
51884;DHT22;37915;53.254;6.598;2022-08-21T07:35:49;18.80;99.90
51884;DHT22;37915;53.254;6.598;2022-08-21T07:38:15;18.90;99.90
51884;DHT22;37915;53.254;6.598;2022-08-21T07:40:41;19.00;99.90
51884;DHT22;37915;53.254;6.598;2022-08-21T07:43:07;19.10;99.90
51884;DHT22;37915;53.254;6.598;2022-08-21T07:45:33;19.20;99.90
51884;DHT22;37915;53.254;6.598;2022-08-21T07:47:59;19.30;99.90
51884;DHT22;37915;53.254;6.598;2022-08-21T07:50:25;19.40;99.90
51884;DHT22;37915;53.254;6.598;2022-08-21T07:52:51;19.40;99.90
51884;DHT22;37915;53.254;6.598;2022-08-21T07:55:18;19.60;99.90
51884;DHT22;37915;53.254;6.598;2022-08-21T07:57:45;19.60;99.90
51884;DHT22;37915;53.254;6.598;2022-08-21T08:00:15;19.60;99.90
51884;DHT22;37915;53.254;6.598;2022-08-21T08:02:43;19.70;99.90
51884;DHT22;37915;53.254;6.598;2022-08-21T08:05:10;19.80;99.90
51884;DHT22;37915;53.254;6.598;2022-08-21T08:07:36;19.90;99.90
51884;DHT22;37915;53.254;6.598;2022-08-21T08:10:04;20.00;99.90
51884;DHT22;37915;53.254;6.598;2022-08-21T08:12:30;20.10;99.90
51884;DHT22;37915;53.254;6.598;2022-08-21T08:14:57;20.20;99.90
51884;DHT22;37915;53.254;6.598;2022-08-21T08:17:24;20.30;99.90
51884;DHT22;37915;53.254;6.598;2022-08-21T08:19:50;20.50;99.90
51884;DHT22;37915;53.254;6.598;2022-08-21T08:22:17;20.60;99.90
51884;DHT22;37915;53.254;6.598;2022-08-21T08:24:45;20.70;99.90
51884;DHT22;37915;53.254;6.598;2022-08-21T08:27:11;20.80;99.90
51884;DHT22;37915;53.254;6.598;2022-08-21T08:29:37;20.90;99.90
51884;DHT22;37915;53.254;6.598;2022-08-21T08:32:04;21.00;99.90
51884;DHT22;37915;53.254;6.598;2022-08-21T08:34:33;21.00;99.90
51884;DHT22;37915;53.254;6.598;2022-08-21T08:36:59;21.20;99.90
51884;DHT22;37915;53.254;6.598;2022-08-21T08:39:25;21.20;99.90
51884;DHT22;37915;53.254;6.598;2022-08-21T08:42:12;21.30;99.90
51884;DHT22;37915;53.254;6.598;2022-08-21T08:44:42;21.50;99.90
51884;DHT22;37915;53.254;6.598;2022-08-21T08:47:09;21.50;99.90
51884;DHT22;37915;53.254;6.598;2022-08-21T08:49:58;21.60;99.90
51884;DHT22;37915;53.254;6.598;2022-08-21T08:52:32;21.60;99.90
51884;DHT22;37915;53.254;6.598;2022-08-21T08:57:35;21.70;99.90
51884;DHT22;37915;53.254;6.598;2022-08-21T09:00:06;21.90;99.90
51884;DHT22;37915;53.254;6.598;2022-08-21T09:02:33;21.90;99.90
51884;DHT22;37915;53.254;6.598;2022-08-21T09:05:00;21.90;99.90
51884;DHT22;37915;53.254;6.598;2022-08-21T09:07:57;22.00;99.90
51884;DHT22;37915;53.254;6.598;2022-08-21T09:18:22;22.20;99.90
51884;DHT22;37915;53.254;6.598;2022-08-21T09:27:15;22.70;99.90
51884;DHT22;37915;53.254;6.598;2022-08-21T09:29:44;22.70;99.90
51884;DHT22;37915;53.254;6.598;2022-08-21T09:32:19;22.70;99.90
51884;DHT22;37915;53.254;6.598;2022-08-21T09:37:34;22.60;99.90
51884;DHT22;37915;53.254;6.598;2022-08-21T09:40:02;22.70;99.90
51884;DHT22;37915;53.254;6.598;2022-08-21T09:42:31;22.90;99.90
51884;DHT22;37915;53.254;6.598;2022-08-21T09:45:17;23.00;99.90
51884;DHT22;37915;53.254;6.598;2022-08-21T09:47:43;23.10;99.90
51884;DHT22;37915;53.254;6.598;2022-08-21T09:50:28;23.20;99.90
51884;DHT22;37915;53.254;6.598;2022-08-21T09:52:57;23.50;99.90
51884;DHT22;37915;53.254;6.598;2022-08-21T09:56:18;23.60;99.90
51884;DHT22;37915;53.254;6.598;2022-08-21T09:58:39;23.80;99.90
51884;DHT22;37915;53.254;6.598;2022-08-21T10:01:06;23.70;99.90
51884;DHT22;37915;53.254;6.598;2022-08-21T10:03:32;23.80;99.90
51884;DHT22;37915;53.254;6.598;2022-08-21T10:06:03;23.90;99.90
51884;DHT22;37915;53.254;6.598;2022-08-21T10:08:33;24.00;99.90
51884;DHT22;37915;53.254;6.598;2022-08-21T10:11:14;24.20;99.90
51884;DHT22;37915;53.254;6.598;2022-08-21T10:14:03;24.40;99.90
51884;DHT22;37915;53.254;6.598;2022-08-21T10:30:43;24.40;99.90
51884;DHT22;37915;53.254;6.598;2022-08-21T10:33:21;24.30;99.90
51884;DHT22;37915;53.254;6.598;2022-08-21T10:47:06;24.00;99.90
51884;DHT22;37915;53.254;6.598;2022-08-21T10:49:58;23.80;99.90
51884;DHT22;37915;53.254;6.598;2022-08-21T10:52:30;23.50;99.90
51884;DHT22;37915;53.254;6.598;2022-08-21T10:55:18;23.30;99.90
51884;DHT22;37915;53.254;6.598;2022-08-21T10:57:57;23.20;99.90
51884;DHT22;37915;53.254;6.598;2022-08-21T11:00:29;23.10;99.90
51884;DHT22;37915;53.254;6.598;2022-08-21T11:03:10;23.00;99.90
51884;DHT22;37915;53.254;6.598;2022-08-21T11:05:48;23.00;99.90
51884;DHT22;37915;53.254;6.598;2022-08-21T11:08:23;22.90;99.90
51884;DHT22;37915;53.254;6.598;2022-08-21T11:10:57;22.80;99.90
51884;DHT22;37915;53.254;6.598;2022-08-21T11:13:40;22.90;99.90
51884;DHT22;37915;53.254;6.598;2022-08-21T11:19:07;23.40;99.90
51884;DHT22;37915;53.254;6.598;2022-08-21T11:21:44;23.60;99.90
51884;DHT22;37915;53.254;6.598;2022-08-21T11:27:45;24.10;99.90
51884;DHT22;37915;53.254;6.598;2022-08-21T11:30:12;24.20;99.90
51884;DHT22;37915;53.254;6.598;2022-08-21T11:32:45;24.30;99.90
51884;DHT22;37915;53.254;6.598;2022-08-21T11:35:39;24.40;99.90
51884;DHT22;37915;53.254;6.598;2022-08-21T11:38:26;24.40;99.90
51884;DHT22;37915;53.254;6.598;2022-08-21T11:43:45;24.20;99.90
51884;DHT22;37915;53.254;6.598;2022-08-21T11:54:26;23.70;99.90
51884;DHT22;37915;53.254;6.598;2022-08-21T11:57:05;23.60;99.90
51884;DHT22;37915;53.254;6.598;2022-08-21T11:59:51;23.60;99.90
51884;DHT22;37915;53.254;6.598;2022-08-21T12:02:24;23.40;99.90
51884;DHT22;37915;53.254;6.598;2022-08-21T12:05:08;23.40;99.90
51884;DHT22;37915;53.254;6.598;2022-08-21T12:07:43;23.40;99.90
51884;DHT22;37915;53.254;6.598;2022-08-21T12:10:18;23.20;99.90
51884;DHT22;37915;53.254;6.598;2022-08-21T12:12:47;23.20;99.90
51884;DHT22;37915;53.254;6.598;2022-08-21T12:15:27;23.10;99.90
51884;DHT22;37915;53.254;6.598;2022-08-21T12:18:01;23.00;99.90
51884;DHT22;37915;53.254;6.598;2022-08-21T12:20:40;23.10;99.90
51884;DHT22;37915;53.254;6.598;2022-08-21T12:25:42;23.40;99.90
51884;DHT22;37915;53.254;6.598;2022-08-21T12:28:14;23.40;99.90
51884;DHT22;37915;53.254;6.598;2022-08-21T12:30:43;23.40;99.90
51884;DHT22;37915;53.254;6.598;2022-08-21T12:33:32;23.30;99.90
51884;DHT22;37915;53.254;6.598;2022-08-21T12:36:09;23.30;99.90
51884;DHT22;37915;53.254;6.598;2022-08-21T12:38:55;23.40;99.90
51884;DHT22;37915;53.254;6.598;2022-08-21T12:41:32;23.80;99.90
51884;DHT22;37915;53.254;6.598;2022-08-21T12:46:34;24.40;99.90
51884;DHT22;37915;53.254;6.598;2022-08-21T12:49:08;24.50;99.90
51884;DHT22;37915;53.254;6.598;2022-08-21T12:52:09;24.50;99.90
51884;DHT22;37915;53.254;6.598;2022-08-21T12:54:43;24.40;99.90
51884;DHT22;37915;53.254;6.598;2022-08-21T12:57:18;24.50;99.90
51884;DHT22;37915;53.254;6.598;2022-08-21T12:59:44;24.80;99.90
51884;DHT22;37915;53.254;6.598;2022-08-21T13:02:23;24.90;99.90
51884;DHT22;37915;53.254;6.598;2022-08-21T13:04:50;25.00;99.90
51884;DHT22;37915;53.254;6.598;2022-08-21T13:07:24;24.90;99.90
51884;DHT22;37915;53.254;6.598;2022-08-21T13:09:53;24.70;99.90
51884;DHT22;37915;53.254;6.598;2022-08-21T13:12:21;24.50;99.90
51884;DHT22;37915;53.254;6.598;2022-08-21T13:14:49;24.40;99.90
51884;DHT22;37915;53.254;6.598;2022-08-21T13:17:18;24.30;99.90
51884;DHT22;37915;53.254;6.598;2022-08-21T13:19:58;24.60;99.90
51884;DHT22;37915;53.254;6.598;2022-08-21T13:22:26;25.10;99.90
51884;DHT22;37915;53.254;6.598;2022-08-21T13:24:52;25.40;99.90
51884;DHT22;37915;53.254;6.598;2022-08-21T13:27:27;25.90;99.90
51884;DHT22;37915;53.254;6.598;2022-08-21T13:30:20;26.00;99.90
51884;DHT22;37915;53.254;6.598;2022-08-21T13:32:56;25.70;99.90
51884;DHT22;37915;53.254;6.598;2022-08-21T13:35:34;25.40;99.90
51884;DHT22;37915;53.254;6.598;2022-08-21T13:38:02;25.20;99.90
51884;DHT22;37915;53.254;6.598;2022-08-21T13:40:44;24.90;99.90
51884;DHT22;37915;53.254;6.598;2022-08-21T13:43:17;24.70;99.90
51884;DHT22;37915;53.254;6.598;2022-08-21T13:45:47;24.60;99.90
51884;DHT22;37915;53.254;6.598;2022-08-21T13:48:13;24.40;99.90
51884;DHT22;37915;53.254;6.598;2022-08-21T13:50:41;24.30;99.90
51884;DHT22;37915;53.254;6.598;2022-08-21T13:53:23;24.30;99.90
51884;DHT22;37915;53.254;6.598;2022-08-21T13:55:52;24.40;99.90
51884;DHT22;37915;53.254;6.598;2022-08-21T13:58:42;24.30;99.90
51884;DHT22;37915;53.254;6.598;2022-08-21T14:01:21;24.20;99.90
51884;DHT22;37915;53.254;6.598;2022-08-21T14:03:49;24.10;99.90
51884;DHT22;37915;53.254;6.598;2022-08-21T14:06:22;23.90;99.90
51884;DHT22;37915;53.254;6.598;2022-08-21T14:08:52;23.90;99.90
51884;DHT22;37915;53.254;6.598;2022-08-21T14:11:19;23.80;99.90
51884;DHT22;37915;53.254;6.598;2022-08-21T14:14:27;23.70;99.90
51884;DHT22;37915;53.254;6.598;2022-08-21T14:17:25;23.70;99.90
51884;DHT22;37915;53.254;6.598;2022-08-21T14:19:52;23.60;99.90
51884;DHT22;37915;53.254;6.598;2022-08-21T14:25:26;23.50;99.90
51884;DHT22;37915;53.254;6.598;2022-08-21T14:30:42;23.20;99.90
51884;DHT22;37915;53.254;6.598;2022-08-21T14:33:13;23.10;99.90
51884;DHT22;37915;53.254;6.598;2022-08-21T14:35:43;22.90;99.90
51884;DHT22;37915;53.254;6.598;2022-08-21T14:38:19;22.80;99.90
51884;DHT22;37915;53.254;6.598;2022-08-21T14:40:51;22.80;99.90
51884;DHT22;37915;53.254;6.598;2022-08-21T14:43:18;22.70;99.90
51884;DHT22;37915;53.254;6.598;2022-08-21T14:45:46;22.70;99.90
51884;DHT22;37915;53.254;6.598;2022-08-21T14:48:12;22.80;99.90
51884;DHT22;37915;53.254;6.598;2022-08-21T14:50:38;22.80;99.90
51884;DHT22;37915;53.254;6.598;2022-08-21T14:53:04;22.80;99.90
51884;DHT22;37915;53.254;6.598;2022-08-21T14:55:30;22.80;99.90
51884;DHT22;37915;53.254;6.598;2022-08-21T14:58:16;22.70;99.90
51884;DHT22;37915;53.254;6.598;2022-08-21T15:00:42;22.70;99.90
51884;DHT22;37915;53.254;6.598;2022-08-21T15:03:09;22.70;99.90
51884;DHT22;37915;53.254;6.598;2022-08-21T15:05:35;22.80;99.90
51884;DHT22;37915;53.254;6.598;2022-08-21T15:08:01;22.80;99.90
51884;DHT22;37915;53.254;6.598;2022-08-21T15:10:27;22.90;99.90
51884;DHT22;37915;53.254;6.598;2022-08-21T15:12:53;22.80;99.90
51884;DHT22;37915;53.254;6.598;2022-08-21T15:15:19;22.70;99.90
51884;DHT22;37915;53.254;6.598;2022-08-21T15:17:44;22.60;99.90
51884;DHT22;37915;53.254;6.598;2022-08-21T15:20:10;22.50;99.90
51884;DHT22;37915;53.254;6.598;2022-08-21T15:22:36;22.60;99.90
51884;DHT22;37915;53.254;6.598;2022-08-21T15:25:02;22.60;99.90
51884;DHT22;37915;53.254;6.598;2022-08-21T15:27:28;22.60;99.90
51884;DHT22;37915;53.254;6.598;2022-08-21T15:29:54;22.60;99.90
51884;DHT22;37915;53.254;6.598;2022-08-21T15:32:23;22.50;99.90
51884;DHT22;37915;53.254;6.598;2022-08-21T15:34:51;22.50;99.90
51884;DHT22;37915;53.254;6.598;2022-08-21T15:37:17;22.60;99.90
51884;DHT22;37915;53.254;6.598;2022-08-21T15:39:43;22.70;99.90
51884;DHT22;37915;53.254;6.598;2022-08-21T15:42:09;22.90;99.90
51884;DHT22;37915;53.254;6.598;2022-08-21T15:44:37;23.10;99.90
51884;DHT22;37915;53.254;6.598;2022-08-21T15:47:03;23.10;99.90
51884;DHT22;37915;53.254;6.598;2022-08-21T15:49:29;23.10;99.90
51884;DHT22;37915;53.254;6.598;2022-08-21T15:51:54;23.00;99.90
51884;DHT22;37915;53.254;6.598;2022-08-21T15:54:20;22.90;99.90
51884;DHT22;37915;53.254;6.598;2022-08-21T15:56:48;22.80;99.90
51884;DHT22;37915;53.254;6.598;2022-08-21T15:59:19;22.80;99.90
51884;DHT22;37915;53.254;6.598;2022-08-21T16:01:50;22.80;99.90
51884;DHT22;37915;53.254;6.598;2022-08-21T16:04:26;22.90;99.90
51884;DHT22;37915;53.254;6.598;2022-08-21T16:06:53;23.00;99.90
51884;DHT22;37915;53.254;6.598;2022-08-21T16:09:19;23.10;99.90
51884;DHT22;37915;53.254;6.598;2022-08-21T16:11:46;23.00;99.90
51884;DHT22;37915;53.254;6.598;2022-08-21T16:14:14;22.90;99.90
51884;DHT22;37915;53.254;6.598;2022-08-21T16:16:40;22.80;99.90
51884;DHT22;37915;53.254;6.598;2022-08-21T16:19:06;22.60;99.90
51884;DHT22;37915;53.254;6.598;2022-08-21T16:21:34;22.50;99.90
51884;DHT22;37915;53.254;6.598;2022-08-21T16:23:59;22.40;99.90
51884;DHT22;37915;53.254;6.598;2022-08-21T16:26:26;22.40;99.90
51884;DHT22;37915;53.254;6.598;2022-08-21T16:28:54;22.20;99.90
51884;DHT22;37915;53.254;6.598;2022-08-21T16:31:22;22.40;99.90
51884;DHT22;37915;53.254;6.598;2022-08-21T16:33:51;22.50;99.90
51884;DHT22;37915;53.254;6.598;2022-08-21T16:36:18;22.50;99.90
51884;DHT22;37915;53.254;6.598;2022-08-21T16:38:44;22.60;99.90
51884;DHT22;37915;53.254;6.598;2022-08-21T16:41:12;22.50;99.90
51884;DHT22;37915;53.254;6.598;2022-08-21T16:43:41;22.50;99.90
51884;DHT22;37915;53.254;6.598;2022-08-21T16:46:08;22.50;99.90
51884;DHT22;37915;53.254;6.598;2022-08-21T16:48:35;22.50;99.90
51884;DHT22;37915;53.254;6.598;2022-08-21T16:51:00;22.50;99.90
51884;DHT22;37915;53.254;6.598;2022-08-21T16:53:26;22.50;99.90
51884;DHT22;37915;53.254;6.598;2022-08-21T16:55:52;22.40;99.90
51884;DHT22;37915;53.254;6.598;2022-08-21T16:58:27;22.40;99.90